Time;durP1;ratioP1;P1;durP2;ratioP2;P2;SDS_P1;SDS_P2;PMS_P1;PMS_P2;Temp;Humidity;BMP_temperature;BMP_pressure;BME280_temperature;BME280_humidity;BME280_pressure;Samples;Min_cycle;Max_cycle;Signal;HPM_P1;HPM_P2
2023/05/19 00:01:09;;;;;;;5.25;3.70;;;;;;;;;;5033109;28;20132;-73
2023/05/19 00:03:39;;;;;;;6.13;3.70;;;;;;;;;;5032505;28;20526;-72
2023/05/19 00:06:09;;;;;;;5.85;3.28;;;;;;;;;;5031215;28;20051;-71
2023/05/19 00:08:37;;;;;;;5.32;3.30;;;;;;;;;;5032773;28;20533;-72
2023/05/19 00:11:03;;;;;;;8.75;3.85;;;;;;;;;;5032622;28;20029;-71
2023/05/19 00:13:29;;;;;;;5.22;4.00;;;;;;;;;;5032069;28;20043;-71
2023/05/19 00:15:55;;;;;;;9.27;3.55;;;;;;;;;;5032435;28;20411;-71
2023/05/19 00:18:21;;;;;;;5.35;3.60;;;;;;;;;;5032702;28;20055;-71
2023/05/19 00:20:48;;;;;;;5.93;3.90;;;;;;;;;;5032613;28;20033;-71
2023/05/19 00:23:13;;;;;;;7.82;3.60;;;;;;;;;;5032324;28;20037;-72
2023/05/19 00:25:39;;;;;;;5.00;3.45;;;;;;;;;;5031791;28;20083;-72
2023/05/19 00:28:05;;;;;;;10.30;4.25;;;;;;;;;;5031931;28;20035;-71
2023/05/19 00:30:31;;;;;;;8.18;5.03;;;;;;;;;;5031196;28;20021;-70
2023/05/19 00:32:57;;;;;;;11.10;5.88;;;;;;;;;;5030435;28;20044;-74
2023/05/19 00:35:23;;;;;;;8.52;5.15;;;;;;;;;;5029355;28;20025;-71
2023/05/19 00:37:49;;;;;;;7.47;4.43;;;;;;;;;;5030721;28;20080;-70
2023/05/19 00:40:15;;;;;;;8.18;4.75;;;;;;;;;;5030651;28;20025;-71
2023/05/19 00:42:42;;;;;;;7.45;3.75;;;;;;;;;;5029140;28;20037;-73
2023/05/19 00:45:08;;;;;;;7.72;4.07;;;;;;;;;;5030500;28;20060;-72
2023/05/19 00:47:34;;;;;;;8.18;3.80;;;;;;;;;;5031901;28;20029;-71
2023/05/19 00:49:59;;;;;;;11.18;4.68;;;;;;;;;;5030462;28;20064;-71
2023/05/19 00:52:26;;;;;;;9.43;4.15;;;;;;;;;;5031504;28;20475;-72
2023/05/19 00:54:52;;;;;;;8.75;3.75;;;;;;;;;;5028065;28;20057;-71
2023/05/19 00:57:19;;;;;;;6.38;4.28;;;;;;;;;;5030067;28;20029;-71
2023/05/19 00:59:47;;;;;;;9.82;4.20;;;;;;;;;;5030568;28;20025;-71
2023/05/19 01:02:13;;;;;;;9.88;4.25;;;;;;;;;;5030212;28;20498;-74
2023/05/19 01:04:40;;;;;;;4.65;3.90;;;;;;;;;;5031407;28;20055;-71
2023/05/19 01:07:06;;;;;;;11.30;4.05;;;;;;;;;;5030851;28;20487;-71
2023/05/19 01:09:32;;;;;;;6.28;4.50;;;;;;;;;;5031240;28;20112;-72
2023/05/19 01:12:00;;;;;;;7.88;4.50;;;;;;;;;;5032468;28;20041;-71
2023/05/19 01:14:27;;;;;;;10.27;4.20;;;;;;;;;;5030464;28;20403;-71
2023/05/19 01:17:04;;;;;;;8.80;4.70;;;;;;;;;;5029946;28;20042;-72
2023/05/19 01:19:45;;;;;;;7.10;4.20;;;;;;;;;;5031800;28;20449;-71
2023/05/19 01:22:44;;;;;;;5.07;4.05;;;;;;;;;;5015129;28;20098;-73
2023/05/19 01:25:35;;;;;;;8.50;4.25;;;;;;;;;;5029827;28;20038;-71
2023/05/19 01:28:20;;;;;;;6.40;3.97;;;;;;;;;;5026429;28;20428;-72
2023/05/19 01:30:53;;;;;;;8.30;4.35;;;;;;;;;;5029808;28;20106;-72
2023/05/19 01:33:21;;;;;;;8.48;4.25;;;;;;;;;;5031202;28;20099;-72
2023/05/19 01:35:49;;;;;;;8.82;3.80;;;;;;;;;;5029198;28;20112;-72
2023/05/19 01:38:17;;;;;;;7.05;4.13;;;;;;;;;;5031062;28;20075;-71
2023/05/19 01:40:44;;;;;;;8.00;4.28;;;;;;;;;;5029584;28;20064;-71
2023/05/19 01:43:14;;;;;;;5.85;4.00;;;;;;;;;;5022548;28;20121;-71
2023/05/19 01:45:41;;;;;;;5.78;3.97;;;;;;;;;;5017813;28;20037;-71
2023/05/19 01:48:08;;;;;;;4.35;3.47;;;;;;;;;;5018296;28;20148;-71
2023/05/19 01:50:33;;;;;;;8.10;4.18;;;;;;;;;;5020214;28;20042;-71
2023/05/19 01:53:00;;;;;;;8.55;4.57;;;;;;;;;;5023192;28;20487;-72
2023/05/19 01:55:26;;;;;;;7.95;4.30;;;;;;;;;;5020437;28;20033;-71
2023/05/19 01:58:16;;;;;;;7.80;4.65;;;;;;;;;;5024641;28;20043;-71
2023/05/19 02:01:05;;;;;;;9.23;4.25;;;;;;;;;;5024948;28;20120;-71
2023/05/19 02:03:55;;;;;;;5.75;4.10;;;;;;;;;;5024299;28;20073;-71
2023/05/19 02:06:45;;;;;;;6.53;4.30;;;;;;;;;;5023642;28;20105;-71
2023/05/19 02:09:31;;;;;;;6.40;4.43;;;;;;;;;;5030210;28;20553;-71
2023/05/19 02:12:17;;;;;;;5.35;3.83;;;;;;;;;;5022214;28;20088;-71
2023/05/19 02:15:02;;;;;;;4.78;3.78;;;;;;;;;;5026001;28;20049;-71
2023/05/19 02:17:34;;;;;;;9.60;4.10;;;;;;;;;;5028335;28;20484;-71
2023/05/19 02:20:03;;;;;;;5.03;3.83;;;;;;;;;;5044029;28;20037;-71
2023/05/19 02:22:30;;;;;;;7.65;3.88;;;;;;;;;;5049481;28;20057;-72
2023/05/19 02:24:56;;;;;;;5.38;3.80;;;;;;;;;;5032278;28;20632;-72
2023/05/19 02:27:22;;;;;;;8.15;4.15;;;;;;;;;;5029597;28;20045;-71
2023/05/19 02:29:48;;;;;;;7.43;3.97;;;;;;;;;;5033657;28;20454;-71
2023/05/19 02:32:14;;;;;;;8.98;4.25;;;;;;;;;;5031601;28;20017;-71
2023/05/19 02:34:44;;;;;;;4.47;3.33;;;;;;;;;;5029832;28;20046;-72
2023/05/19 02:37:14;;;;;;;10.18;3.60;;;;;;;;;;5029358;28;20030;-72
2023/05/19 02:39:43;;;;;;;6.38;3.40;;;;;;;;;;5023035;28;20041;-72
2023/05/19 02:42:09;;;;;;;7.80;4.10;;;;;;;;;;5024501;28;20037;-71
2023/05/19 02:44:35;;;;;;;9.50;3.97;;;;;;;;;;5025998;28;20049;-71
2023/05/19 02:47:01;;;;;;;9.32;3.88;;;;;;;;;;5029663;28;20036;-71
2023/05/19 02:49:29;;;;;;;10.93;4.22;;;;;;;;;;5021488;28;20038;-72
2023/05/19 02:51:56;;;;;;;6.05;3.63;;;;;;;;;;5030929;28;20443;-72
2023/05/19 02:54:22;;;;;;;5.45;3.22;;;;;;;;;;5026047;28;20116;-72
2023/05/19 02:56:47;;;;;;;4.97;3.65;;;;;;;;;;5048771;28;20117;-72
2023/05/19 02:59:13;;;;;;;6.15;3.65;;;;;;;;;;5031851;28;20487;-72
2023/05/19 03:01:39;;;;;;;5.40;3.17;;;;;;;;;;5039512;28;20414;-71
2023/05/19 03:04:05;;;;;;;7.43;3.58;;;;;;;;;;5025372;28;20460;-72
2023/05/19 03:06:31;;;;;;;5.03;3.20;;;;;;;;;;5025154;28;20045;-71
2023/05/19 03:08:57;;;;;;;6.70;3.78;;;;;;;;;;5031899;28;20026;-72
2023/05/19 03:11:23;;;;;;;6.60;3.47;;;;;;;;;;5029576;28;20032;-71
2023/05/19 03:13:49;;;;;;;6.05;3.60;;;;;;;;;;5030755;28;20038;-71
2023/05/19 03:16:14;;;;;;;7.30;3.38;;;;;;;;;;5029231;28;20033;-72
2023/05/19 03:18:40;;;;;;;11.80;4.03;;;;;;;;;;5030083;28;20088;-70
2023/05/19 03:21:06;;;;;;;9.70;3.25;;;;;;;;;;5026202;28;20030;-70
2023/05/19 03:23:32;;;;;;;5.60;3.05;;;;;;;;;;5026849;28;20119;-71
2023/05/19 03:25:58;;;;;;;6.78;3.58;;;;;;;;;;5024963;28;20061;-71
2023/05/19 03:28:26;;;;;;;8.65;3.88;;;;;;;;;;5032131;28;20067;-71
2023/05/19 03:30:51;;;;;;;5.00;3.28;;;;;;;;;;5030449;28;20044;-70
2023/05/19 03:33:22;;;;;;;5.38;3.20;;;;;;;;;;5025431;28;20152;-71
2023/05/19 03:35:48;;;;;;;6.75;3.05;;;;;;;;;;5023322;28;20034;-70
2023/05/19 03:38:15;;;;;;;4.38;2.97;;;;;;;;;;5027688;28;20109;-72
2023/05/19 03:40:48;;;;;;;5.13;3.15;;;;;;;;;;5027230;28;20577;-71
2023/05/19 03:43:15;;;;;;;9.45;3.50;;;;;;;;;;5029271;28;20037;-70
2023/05/19 03:45:45;;;;;;;7.88;3.50;;;;;;;;;;5042891;28;20407;-72
2023/05/19 03:48:32;;;;;;;7.72;3.65;;;;;;;;;;5030571;28;20049;-73
2023/05/19 03:51:30;;;;;;;14.63;4.72;;;;;;;;;;4992935;28;20038;-71
2023/05/19 03:54:04;;;;;;;7.93;4.35;;;;;;;;;;5030571;28;20029;-70
2023/05/19 03:56:31;;;;;;;11.65;4.82;;;;;;;;;;5028244;28;20393;-71
2023/05/19 03:58:58;;;;;;;8.93;4.10;;;;;;;;;;5030185;28;20030;-72
2023/05/19 04:01:24;;;;;;;7.55;4.25;;;;;;;;;;5030894;28;20325;-72
2023/05/19 04:03:49;;;;;;;15.38;5.22;;;;;;;;;;5044288;28;20037;-71
2023/05/19 04:06:16;;;;;;;19.20;5.47;;;;;;;;;;5029379;28;20514;-72
2023/05/19 04:08:43;;;;;;;20.77;5.70;;;;;;;;;;5029799;28;20530;-70
2023/05/19 04:11:08;;;;;;;11.55;4.78;;;;;;;;;;5028947;28;20128;-71
2023/05/19 04:13:34;;;;;;;11.20;5.55;;;;;;;;;;5029745;28;20112;-71
2023/05/19 04:16:00;;;;;;;18.45;5.82;;;;;;;;;;5029286;28;20754;-71
2023/05/19 04:18:26;;;;;;;14.77;4.80;;;;;;;;;;5024978;28;20057;-71
2023/05/19 04:20:52;;;;;;;7.70;3.53;;;;;;;;;;5030561;28;20060;-71
2023/05/19 04:23:18;;;;;;;23.25;5.85;;;;;;;;;;5026933;28;20483;-71
2023/05/19 04:25:44;;;;;;;12.77;4.03;;;;;;;;;;5026619;28;20087;-71
2023/05/19 04:28:10;;;;;;;16.42;4.63;;;;;;;;;;5043791;28;20101;-72
2023/05/19 04:30:37;;;;;;;11.48;3.85;;;;;;;;;;5039904;28;20135;-71
2023/05/19 04:33:03;;;;;;;8.63;3.05;;;;;;;;;;5030032;28;20029;-71
2023/05/19 04:35:30;;;;;;;6.40;3.17;;;;;;;;;;5043927;28;20506;-73
2023/05/19 04:37:57;;;;;;;4.93;3.33;;;;;;;;;;5026099;28;20048;-70
2023/05/19 04:40:29;;;;;;;6.18;3.17;;;;;;;;;;5030832;28;20043;-74
2023/05/19 04:42:56;;;;;;;7.43;3.25;;;;;;;;;;5025397;28;20065;-74
2023/05/19 04:45:24;;;;;;;4.13;2.80;;;;;;;;;;5027133;28;20139;-73
2023/05/19 04:47:56;;;;;;;7.82;3.00;;;;;;;;;;5029645;28;20029;-71
2023/05/19 04:50:23;;;;;;;8.90;3.15;;;;;;;;;;5020621;28;20025;-72
2023/05/19 04:52:49;;;;;;;5.32;2.72;;;;;;;;;;5027901;28;20462;-72
2023/05/19 04:55:16;;;;;;;8.60;2.90;;;;;;;;;;5028833;28;20037;-74
2023/05/19 04:57:43;;;;;;;4.70;3.13;;;;;;;;;;5027261;28;20060;-72
2023/05/19 05:00:12;;;;;;;6.60;2.83;;;;;;;;;;5022824;28;20029;-73
2023/05/19 05:02:51;;;;;;;8.20;3.30;;;;;;;;;;5022378;28;20542;-74
2023/05/19 05:05:20;;;;;;;10.55;2.80;;;;;;;;;;5028756;28;20040;-73
2023/05/19 05:07:46;;;;;;;7.05;2.97;;;;;;;;;;5012110;28;20495;-73
2023/05/19 05:10:13;;;;;;;6.78;2.80;;;;;;;;;;5025120;28;20120;-73
2023/05/19 05:12:40;;;;;;;6.47;2.83;;;;;;;;;;5008717;28;20108;-73
2023/05/19 05:15:06;;;;;;;9.30;2.60;;;;;;;;;;5041202;28;20037;-73
2023/05/19 05:17:34;;;;;;;7.30;2.70;;;;;;;;;;5026156;28;20092;-73
2023/05/19 05:20:04;;;;;;;8.50;2.65;;;;;;;;;;5023413;28;20099;-73
2023/05/19 05:22:30;;;;;;;7.03;2.38;;;;;;;;;;5025339;28;20029;-74
2023/05/19 05:24:56;;;;;;;8.90;2.47;;;;;;;;;;5023122;28;20041;-74
2023/05/19 05:27:23;;;;;;;4.65;2.30;;;;;;;;;;5028180;28;20029;-75
2023/05/19 05:29:49;;;;;;;7.75;2.35;;;;;;;;;;5027853;28;20037;-73
2023/05/19 05:32:16;;;;;;;7.85;2.65;;;;;;;;;;5025423;28;20064;-74
2023/05/19 05:34:42;;;;;;;4.05;2.20;;;;;;;;;;5025249;28;20068;-73
2023/05/19 05:37:08;;;;;;;11.95;3.33;;;;;;;;;;5019576;28;20131;-74
2023/05/19 05:39:34;;;;;;;6.00;2.55;;;;;;;;;;5023569;28;20030;-74
2023/05/19 05:42:00;;;;;;;6.30;2.42;;;;;;;;;;5025033;28;20044;-73
2023/05/19 05:44:26;;;;;;;4.43;2.72;;;;;;;;;;5021919;28;20038;-74
2023/05/19 05:46:53;;;;;;;5.72;2.80;;;;;;;;;;5028618;28;20033;-74
2023/05/19 05:49:19;;;;;;;4.75;2.10;;;;;;;;;;5027183;28;20120;-73
2023/05/19 05:51:47;;;;;;;4.65;2.35;;;;;;;;;;5025305;28;20040;-73
2023/05/19 05:54:16;;;;;;;5.63;2.70;;;;;;;;;;5022025;28;20047;-75
2023/05/19 05:56:45;;;;;;;8.38;2.90;;;;;;;;;;5022965;28;20038;-75
2023/05/19 05:59:12;;;;;;;4.88;2.60;;;;;;;;;;5026888;28;20366;-74
2023/05/19 06:01:37;;;;;;;5.90;2.30;;;;;;;;;;5025622;28;20562;-73
2023/05/19 06:04:06;;;;;;;9.25;2.70;;;;;;;;;;5023898;28;20025;-73
2023/05/19 06:06:32;;;;;;;9.10;3.03;;;;;;;;;;5026986;28;20046;-73
2023/05/19 06:09:00;;;;;;;6.90;2.60;;;;;;;;;;5024944;28;20025;-73
2023/05/19 06:11:27;;;;;;;8.35;2.35;;;;;;;;;;5039653;28;20529;-72
2023/05/19 06:13:55;;;;;;;8.15;2.35;;;;;;;;;;5021900;28;20450;-73
2023/05/19 06:16:40;;;;;;;4.05;2.20;;;;;;;;;;5023429;28;20052;-72
2023/05/19 06:19:06;;;;;;;11.15;2.30;;;;;;;;;;5032304;28;20103;-73
2023/05/19 06:21:32;;;;;;;4.07;2.10;;;;;;;;;;5023990;28;20025;-73
2023/05/19 06:23:58;;;;;;;11.43;3.00;;;;;;;;;;5019916;28;20068;-72
2023/05/19 06:26:25;;;;;;;4.50;2.45;;;;;;;;;;5026589;28;20022;-73
2023/05/19 06:28:51;;;;;;;8.63;2.50;;;;;;;;;;5019940;28;20403;-72
2023/05/19 06:31:17;;;;;;;4.60;2.20;;;;;;;;;;5025201;28;20036;-71
2023/05/19 06:33:48;;;;;;;6.60;2.50;;;;;;;;;;5022493;28;20120;-72
2023/05/19 06:36:15;;;;;;;10.50;2.92;;;;;;;;;;5021870;28;20052;-72
2023/05/19 06:38:42;;;;;;;8.82;2.55;;;;;;;;;;5028221;28;20024;-72
2023/05/19 06:41:08;;;;;;;7.20;2.60;;;;;;;;;;5027369;28;20060;-71
2023/05/19 06:43:34;;;;;;;7.28;2.35;;;;;;;;;;5036483;28;20418;-71
2023/05/19 06:46:03;;;;;;;3.47;1.98;;;;;;;;;;5020217;28;20122;-72
2023/05/19 06:48:32;;;;;;;5.57;2.33;;;;;;;;;;5025449;28;20392;-71
2023/05/19 06:50:59;;;;;;;7.88;2.63;;;;;;;;;;5037569;28;20037;-71
2023/05/19 06:53:26;;;;;;;9.57;2.47;;;;;;;;;;5018807;28;20036;-74
2023/05/19 06:55:53;;;;;;;6.82;3.13;;;;;;;;;;5009735;28;20048;-71
2023/05/19 06:58:21;;;;;;;3.83;2.10;;;;;;;;;;5026560;28;20021;-73
2023/05/19 07:00:47;;;;;;;7.03;2.13;;;;;;;;;;5028410;28;20037;-73
2023/05/19 07:03:15;;;;;;;4.50;2.08;;;;;;;;;;5028120;28;20075;-71
2023/05/19 07:05:42;;;;;;;6.05;1.77;;;;;;;;;;5024238;28;20184;-71
2023/05/19 07:08:08;;;;;;;4.53;2.13;;;;;;;;;;5024034;28;20117;-71
2023/05/19 07:10:35;;;;;;;6.47;2.00;;;;;;;;;;5030993;28;20030;-71
2023/05/19 07:13:03;;;;;;;5.32;1.95;;;;;;;;;;5023111;28;20033;-71
2023/05/19 07:15:32;;;;;;;4.43;2.00;;;;;;;;;;5031983;28;20033;-71
2023/05/19 07:17:58;;;;;;;4.88;2.40;;;;;;;;;;5030461;28;20069;-72
2023/05/19 07:20:24;;;;;;;4.07;2.00;;;;;;;;;;5022495;28;20022;-72
2023/05/19 07:22:50;;;;;;;4.70;2.08;;;;;;;;;;5024113;28;20179;-71
2023/05/19 07:25:16;;;;;;;5.85;1.85;;;;;;;;;;5023343;28;20025;-72
2023/05/19 07:27:45;;;;;;;4.20;1.70;;;;;;;;;;5029394;28;20087;-71
2023/05/19 07:30:11;;;;;;;6.38;2.22;;;;;;;;;;5033133;28;20029;-71
2023/05/19 07:32:38;;;;;;;4.15;2.00;;;;;;;;;;5033029;28;20137;-71
2023/05/19 07:35:05;;;;;;;3.88;1.95;;;;;;;;;;5028550;28;20026;-70
2023/05/19 07:37:31;;;;;;;3.80;1.80;;;;;;;;;;5029304;28;20500;-72
2023/05/19 07:39:56;;;;;;;2.90;1.90;;;;;;;;;;5026703;28;20029;-71
2023/05/19 07:42:24;;;;;;;3.35;1.85;;;;;;;;;;5025539;28;20034;-73
2023/05/19 07:44:49;;;;;;;3.55;1.80;;;;;;;;;;5043329;28;20502;-71
2023/05/19 07:47:15;;;;;;;3.90;1.55;;;;;;;;;;5030118;28;20030;-71
2023/05/19 07:49:41;;;;;;;4.40;1.88;;;;;;;;;;5027506;28;20416;-71
2023/05/19 07:52:07;;;;;;;3.15;1.85;;;;;;;;;;5026293;28;20307;-71
2023/05/19 07:54:32;;;;;;;5.90;2.10;;;;;;;;;;5025020;28;20487;-72
2023/05/19 07:56:58;;;;;;;4.35;2.15;;;;;;;;;;5025265;28;20037;-72
2023/05/19 07:59:24;;;;;;;3.67;1.98;;;;;;;;;;5024454;28;20024;-71
2023/05/19 08:01:50;;;;;;;6.13;2.13;;;;;;;;;;5026277;28;20030;-72
2023/05/19 08:04:15;;;;;;;4.68;2.10;;;;;;;;;;5025687;28;20024;-71
2023/05/19 08:06:43;;;;;;;5.60;2.00;;;;;;;;;;5032986;28;20033;-73
2023/05/19 08:09:09;;;;;;;4.38;2.03;;;;;;;;;;5030389;28;20258;-72
2023/05/19 08:11:35;;;;;;;4.05;2.05;;;;;;;;;;5026350;28;20033;-71
2023/05/19 08:14:01;;;;;;;4.30;1.80;;;;;;;;;;5017493;28;20049;-70
2023/05/19 08:16:27;;;;;;;2.90;2.08;;;;;;;;;;5019807;28;20045;-71
2023/05/19 08:18:53;;;;;;;3.53;1.95;;;;;;;;;;5017533;28;20024;-70
2023/05/19 08:21:20;;;;;;;3.17;1.60;;;;;;;;;;5022860;28;20429;-71
2023/05/19 08:23:46;;;;;;;4.28;1.90;;;;;;;;;;5027118;28;20032;-70
2023/05/19 08:26:12;;;;;;;5.50;1.90;;;;;;;;;;5027445;28;20029;-71
2023/05/19 08:28:37;;;;;;;4.97;1.92;;;;;;;;;;5023258;28;20038;-71
2023/05/19 08:31:03;;;;;;;2.92;1.92;;;;;;;;;;5035742;28;20033;-71
2023/05/19 08:33:29;;;;;;;4.82;1.83;;;;;;;;;;5022783;28;20455;-70
2023/05/19 08:35:56;;;;;;;4.32;2.00;;;;;;;;;;5024146;28;20109;-71
2023/05/19 08:38:23;;;;;;;2.85;1.67;;;;;;;;;;5040243;28;20091;-71
2023/05/19 08:40:49;;;;;;;3.95;1.95;;;;;;;;;;5017745;28;20041;-71
2023/05/19 08:43:15;;;;;;;3.20;1.75;;;;;;;;;;5027900;28;20025;-71
2023/05/19 08:45:47;;;;;;;3.03;1.80;;;;;;;;;;5031618;28;20400;-71
2023/05/19 08:48:15;;;;;;;5.60;2.55;;;;;;;;;;5026108;28;20033;-72
2023/05/19 08:50:50;;;;;;;5.82;2.13;;;;;;;;;;5031478;28;20026;-71
2023/05/19 08:53:21;;;;;;;2.45;1.65;;;;;;;;;;5031664;28;20375;-72
2023/05/19 08:55:59;;;;;;;3.50;2.00;;;;;;;;;;5029941;28;20037;-71
2023/05/19 08:58:26;;;;;;;3.55;2.20;;;;;;;;;;5024835;28;20363;-73
2023/05/19 09:00:54;;;;;;;5.20;2.05;;;;;;;;;;5039123;28;20422;-72
2023/05/19 09:03:21;;;;;;;4.07;2.00;;;;;;;;;;5029478;28;20271;-72
2023/05/19 09:05:47;;;;;;;4.13;2.35;;;;;;;;;;5030334;28;20646;-71
2023/05/19 09:08:13;;;;;;;2.88;1.63;;;;;;;;;;5022931;28;20041;-72
2023/05/19 09:10:39;;;;;;;3.03;1.70;;;;;;;;;;5030554;28;20036;-72
2023/05/19 09:13:05;;;;;;;4.95;2.50;;;;;;;;;;5027569;28;20109;-70
2023/05/19 09:15:33;;;;;;;5.93;2.30;;;;;;;;;;5027113;28;20527;-72
2023/05/19 09:18:06;;;;;;;2.33;1.63;;;;;;;;;;5028867;28;20025;-72
2023/05/19 09:20:38;;;;;;;4.80;2.00;;;;;;;;;;5020584;28;20033;-72
2023/05/19 09:23:05;;;;;;;5.70;1.77;;;;;;;;;;5026607;28;20089;-72
2023/05/19 09:25:30;;;;;;;5.28;1.98;;;;;;;;;;5023587;28;20116;-71
2023/05/19 09:27:56;;;;;;;3.80;2.20;;;;;;;;;;5030907;28;20033;-73
2023/05/19 09:30:23;;;;;;;4.55;2.20;;;;;;;;;;5029954;28;20395;-72
2023/05/19 09:32:50;;;;;;;3.78;2.40;;;;;;;;;;5031284;28;20029;-74
2023/05/19 09:35:16;;;;;;;2.60;1.83;;;;;;;;;;5028828;28;20026;-73
2023/05/19 09:37:42;;;;;;;3.50;2.13;;;;;;;;;;5029018;28;20033;-72
2023/05/19 09:40:09;;;;;;;3.80;2.30;;;;;;;;;;5030770;28;20040;-73
2023/05/19 09:42:39;;;;;;;3.47;1.95;;;;;;;;;;5030544;28;20399;-72
2023/05/19 09:45:06;;;;;;;2.75;1.80;;;;;;;;;;5027868;28;20364;-74
2023/05/19 09:47:39;;;;;;;5.80;2.00;;;;;;;;;;5021469;28;20065;-71
2023/05/19 09:50:08;;;;;;;4.82;2.10;;;;;;;;;;5030670;28;20311;-73
2023/05/19 09:52:35;;;;;;;5.22;2.17;;;;;;;;;;5031237;28;20037;-73
2023/05/19 09:55:04;;;;;;;5.38;2.20;;;;;;;;;;5029449;28;20127;-73
2023/05/19 09:57:34;;;;;;;5.30;2.20;;;;;;;;;;5026903;28;20094;-72
2023/05/19 10:00:08;;;;;;;4.70;1.98;;;;;;;;;;5031065;28;20033;-72
2023/05/19 10:02:34;;;;;;;4.70;2.17;;;;;;;;;;5029338;28;20037;-72
2023/05/19 10:05:02;;;;;;;3.90;1.92;;;;;;;;;;5028486;28;20029;-73
2023/05/19 10:07:28;;;;;;;4.85;1.70;;;;;;;;;;5026949;28;20155;-73
2023/05/19 10:09:56;;;;;;;3.13;1.90;;;;;;;;;;5030212;28;20056;-72
2023/05/19 10:12:28;;;;;;;3.75;1.83;;;;;;;;;;5030992;28;20040;-73
2023/05/19 10:14:55;;;;;;;2.63;1.80;;;;;;;;;;5028666;28;20061;-72
2023/05/19 10:17:21;;;;;;;3.72;2.03;;;;;;;;;;5045369;28;20029;-73
2023/05/19 10:19:49;;;;;;;4.13;2.30;;;;;;;;;;5029493;28;20040;-73
2023/05/19 10:22:17;;;;;;;5.20;2.20;;;;;;;;;;5030603;28;20039;-73
2023/05/19 10:24:43;;;;;;;3.20;2.20;;;;;;;;;;5030499;28;20133;-73
2023/05/19 10:27:14;;;;;;;7.13;2.00;;;;;;;;;;5029734;28;20109;-74
2023/05/19 10:29:44;;;;;;;2.60;1.90;;;;;;;;;;5029220;28;20121;-73
2023/05/19 10:32:16;;;;;;;4.00;2.20;;;;;;;;;;5023327;28;20049;-73
2023/05/19 10:35:15;;;;;;;4.18;1.90;;;;;;;;;;5024453;28;20531;-73
2023/05/19 10:38:08;;;;;;;4.88;2.10;;;;;;;;;;5021765;28;20033;-72
2023/05/19 10:41:23;;;;;;;3.00;1.85;;;;;;;;;;5020900;28;20032;-73
2023/05/19 10:44:08;;;;;;;3.30;1.77;;;;;;;;;;4994362;28;20117;-72
2023/05/19 10:46:34;;;;;;;3.15;1.85;;;;;;;;;;5010686;28;20522;-72
2023/05/19 10:48:59;;;;;;;3.60;1.90;;;;;;;;;;5022462;28;20065;-73
2023/05/19 10:51:33;;;;;;;5.07;2.00;;;;;;;;;;5029205;28;20060;-74
2023/05/19 10:54:08;;;;;;;6.72;2.05;;;;;;;;;;5029958;28;20037;-72
2023/05/19 10:56:40;;;;;;;3.15;2.13;;;;;;;;;;5027709;28;20038;-73
2023/05/19 10:59:06;;;;;;;3.03;1.80;;;;;;;;;;5032678;28;20033;-74
2023/05/19 11:01:33;;;;;;;2.97;1.90;;;;;;;;;;5033508;28;20462;-74
2023/05/19 11:04:11;;;;;;;4.72;2.28;;;;;;;;;;5032761;28;20111;-73
2023/05/19 11:06:39;;;;;;;3.28;1.80;;;;;;;;;;5034564;28;20451;-74
2023/05/19 11:09:14;;;;;;;5.38;2.78;;;;;;;;;;5033632;28;20021;-73
2023/05/19 11:11:48;;;;;;;5.15;1.67;;;;;;;;;;5033701;28;20045;-73
2023/05/19 11:14:17;;;;;;;5.00;1.95;;;;;;;;;;5032796;28;20034;-72
2023/05/19 11:16:46;;;;;;;3.95;2.00;;;;;;;;;;5032906;28;20061;-73
2023/05/19 11:19:29;;;;;;;4.68;2.42;;;;;;;;;;5034446;28;20044;-72
2023/05/19 11:22:06;;;;;;;2.92;1.90;;;;;;;;;;5033248;28;20116;-71
2023/05/19 11:24:33;;;;;;;2.90;1.98;;;;;;;;;;5034584;28;20030;-75
2023/05/19 11:27:26;;;;;;;2.40;1.80;;;;;;;;;;5034276;28;20018;-73
2023/05/19 11:29:53;;;;;;;2.00;1.60;;;;;;;;;;5048387;28;20077;-73
2023/05/19 11:32:25;;;;;;;5.00;2.15;;;;;;;;;;5034264;28;20021;-73
2023/05/19 11:34:51;;;;;;;;;;;;;;;;;;5034774;28;20029;-73
2023/05/19 11:37:17;;;;;;;6.75;1.85;;;;;;;;;;5033768;28;19980;-74
2023/05/19 11:39:45;;;;;;;2.72;1.70;;;;;;;;;;5034075;28;20081;-74
2023/05/19 11:42:10;;;;;;;2.40;1.92;;;;;;;;;;5033942;28;20021;-74
2023/05/19 11:44:37;;;;;;;4.20;1.98;;;;;;;;;;5026077;28;20492;-72
2023/05/19 11:47:04;;;;;;;6.50;2.22;;;;;;;;;;5033497;28;20536;-71
2023/05/19 11:49:30;;;;;;;11.77;2.13;;;;;;;;;;5025792;28;20127;-72
2023/05/19 11:51:56;;;;;;;2.63;1.65;;;;;;;;;;5024231;28;20141;-73
2023/05/19 11:54:29;;;;;;;3.00;1.83;;;;;;;;;;5032324;28;20037;-73
2023/05/19 11:56:56;;;;;;;3.75;2.10;;;;;;;;;;5025549;28;20038;-71
2023/05/19 11:59:31;;;;;;;5.40;2.38;;;;;;;;;;5034021;28;20017;-72
2023/05/19 12:02:00;;;;;;;5.10;2.10;;;;;;;;;;5025590;28;20049;-72
2023/05/19 12:04:26;;;;;;;3.88;1.90;;;;;;;;;;5042752;28;20022;-73
2023/05/19 12:06:51;;;;;;;4.43;2.17;;;;;;;;;;5031450;28;20033;-72
2023/05/19 12:09:18;;;;;;;5.50;2.30;;;;;;;;;;5036035;28;20034;-72
2023/05/19 12:11:44;;;;;;;3.58;1.50;;;;;;;;;;5030453;28;20042;-73
2023/05/19 12:14:11;;;;;;;4.05;2.10;;;;;;;;;;5033523;28;20121;-73
2023/05/19 12:16:36;;;;;;;8.60;2.13;;;;;;;;;;5025970;28;20535;-73
2023/05/19 12:19:05;;;;;;;3.75;2.05;;;;;;;;;;5031398;28;20133;-71
2023/05/19 12:21:31;;;;;;;5.10;1.88;;;;;;;;;;5033537;28;20033;-72
2023/05/19 12:23:58;;;;;;;2.60;2.10;;;;;;;;;;5032854;28;20040;-74
2023/05/19 12:26:24;;;;;;;2.50;2.00;;;;;;;;;;5032140;28;20430;-73
2023/05/19 12:28:51;;;;;;;6.32;2.80;;;;;;;;;;5032974;28;20056;-70
2023/05/19 12:31:17;;;;;;;5.72;2.33;;;;;;;;;;5033351;28;20440;-72
2023/05/19 12:33:47;;;;;;;3.45;2.17;;;;;;;;;;5032680;28;20339;-71
2023/05/19 12:36:13;;;;;;;4.30;2.20;;;;;;;;;;5032734;28;20030;-72
2023/05/19 12:38:41;;;;;;;8.30;2.58;;;;;;;;;;5032980;28;20048;-72
2023/05/19 12:41:11;;;;;;;4.47;2.28;;;;;;;;;;5024288;28;20037;-73
2023/05/19 12:43:37;;;;;;;3.95;2.60;;;;;;;;;;5023270;28;20057;-73
2023/05/19 12:46:14;;;;;;;2.92;2.10;;;;;;;;;;5029774;28;20021;-71
2023/05/19 12:48:42;;;;;;;7.75;2.80;;;;;;;;;;5030263;28;20029;-71
2023/05/19 12:51:08;;;;;;;4.30;2.40;;;;;;;;;;5020256;28;20033;-72
2023/05/19 12:53:36;;;;;;;9.60;2.50;;;;;;;;;;5027461;28;20071;-71
2023/05/19 12:56:15;;;;;;;5.15;2.33;;;;;;;;;;5030393;28;20108;-74
2023/05/19 12:58:42;;;;;;;3.67;2.30;;;;;;;;;;5022848;28;20040;-71
2023/05/19 13:01:16;;;;;;;7.15;2.97;;;;;;;;;;5016293;28;20021;-74
2023/05/19 13:03:42;;;;;;;5.47;2.65;;;;;;;;;;5030047;28;20037;-72
2023/05/19 13:06:08;;;;;;;6.25;3.90;;;;;;;;;;5046301;28;20027;-72
2023/05/19 13:08:36;;;;;;;4.10;2.50;;;;;;;;;;5032523;28;20038;-72
2023/05/19 13:11:01;;;;;;;6.43;2.90;;;;;;;;;;5033013;28;20063;-73
2023/05/19 13:13:28;;;;;;;4.22;2.55;;;;;;;;;;5031850;28;20052;-72
2023/05/19 13:15:54;;;;;;;5.80;3.20;;;;;;;;;;5031985;28;20446;-71
2023/05/19 13:18:20;;;;;;;7.28;3.25;;;;;;;;;;5031813;28;20025;-71
2023/05/19 13:20:46;;;;;;;9.98;2.90;;;;;;;;;;5032501;28;20120;-70
2023/05/19 13:23:13;;;;;;;7.50;2.88;;;;;;;;;;5031742;28;20022;-71
2023/05/19 13:25:40;;;;;;;5.40;3.05;;;;;;;;;;5023743;28;20487;-74
2023/05/19 13:28:06;;;;;;;6.78;2.60;;;;;;;;;;5020456;28;20056;-73
2023/05/19 13:30:33;;;;;;;5.65;2.63;;;;;;;;;;5012136;28;20080;-71
2023/05/19 13:32:59;;;;;;;7.65;2.95;;;;;;;;;;5014428;28;20111;-71
2023/05/19 13:35:25;;;;;;;7.15;2.60;;;;;;;;;;5025572;28;20021;-72
2023/05/19 13:37:51;;;;;;;8.18;2.72;;;;;;;;;;5029613;28;20064;-73
2023/05/19 13:40:17;;;;;;;6.18;3.00;;;;;;;;;;5031633;28;20065;-71
2023/05/19 13:42:44;;;;;;;5.25;3.30;;;;;;;;;;5015373;28;20053;-72
2023/05/19 13:45:10;;;;;;;7.35;3.15;;;;;;;;;;5031625;28;20028;-72
2023/05/19 13:47:37;;;;;;;4.93;2.88;;;;;;;;;;5032108;28;20111;-72
2023/05/19 13:50:04;;;;;;;7.05;3.40;;;;;;;;;;5031678;28;20108;-73
2023/05/19 13:52:30;;;;;;;3.60;2.75;;;;;;;;;;5031942;28;20034;-74
2023/05/19 13:54:57;;;;;;;10.45;3.20;;;;;;;;;;5031315;28;20048;-71
2023/05/19 13:57:25;;;;;;;6.90;2.83;;;;;;;;;;5031462;28;20061;-72
2023/05/19 13:59:51;;;;;;;9.80;3.40;;;;;;;;;;5031440;28;20025;-72
2023/05/19 14:02:17;;;;;;;6.15;3.35;;;;;;;;;;5031343;28;20411;-72
2023/05/19 14:04:43;;;;;;;5.78;2.95;;;;;;;;;;5046533;28;20021;-72
2023/05/19 14:07:09;;;;;;;7.15;3.53;;;;;;;;;;5027107;28;20021;-72
2023/05/19 14:09:35;;;;;;;4.22;2.92;;;;;;;;;;5042349;28;20105;-71
2023/05/19 14:12:02;;;;;;;5.97;2.80;;;;;;;;;;5022920;28;20080;-73
2023/05/19 14:14:27;;;;;;;4.85;2.53;;;;;;;;;;5030145;28;20083;-74
2023/05/19 14:16:53;;;;;;;5.97;3.00;;;;;;;;;;5031110;28;20037;-72
2023/05/19 14:19:19;;;;;;;3.97;2.95;;;;;;;;;;5031700;28;20371;-72
2023/05/19 14:21:45;;;;;;;5.55;3.00;;;;;;;;;;5031426;28;20041;-72
2023/05/19 14:24:11;;;;;;;4.95;3.05;;;;;;;;;;5029378;28;20025;-73
2023/05/19 14:26:37;;;;;;;4.15;3.00;;;;;;;;;;5031407;28;20053;-73
2023/05/19 14:29:03;;;;;;;9.65;2.90;;;;;;;;;;5031304;28;20030;-73
2023/05/19 14:31:29;;;;;;;6.97;3.22;;;;;;;;;;5029798;28;20041;-73
2023/05/19 14:33:54;;;;;;;5.07;3.08;;;;;;;;;;5022585;28;20025;-73
2023/05/19 14:36:20;;;;;;;4.60;3.10;;;;;;;;;;5031070;28;20222;-73
2023/05/19 14:38:47;;;;;;;11.80;3.80;;;;;;;;;;5031046;28;20052;-72
2023/05/19 14:41:13;;;;;;;6.95;3.50;;;;;;;;;;5022889;28;20483;-72
2023/05/19 14:43:41;;;;;;;5.72;3.05;;;;;;;;;;5021771;28;20026;-71
2023/05/19 14:46:06;;;;;;;8.80;3.15;;;;;;;;;;5022386;28;20113;-70
2023/05/19 14:48:32;;;;;;;8.48;3.78;;;;;;;;;;5022441;28;20061;-71
2023/05/19 14:50:58;;;;;;;9.45;6.03;;;;;;;;;;5028412;28;20041;-72